sensor_id;sensor_type;location;lat;lon;timestamp;pressure;altitude;pressure_sealevel;temperature;humidity
66742;BME280;53654;54.152;19.432;2024-03-23T00:53:59;100528.58;;;9.59;84.31
66742;BME280;53654;54.152;19.432;2024-03-23T00:56:27;100524.08;;;9.57;84.56
66742;BME280;53654;54.152;19.432;2024-03-23T00:58:55;100515.73;;;9.56;84.48
66742;BME280;53654;54.152;19.432;2024-03-23T01:01:23;100515.20;;;9.55;85.11
66742;BME280;53654;54.152;19.432;2024-03-23T01:03:51;100512.96;;;9.53;85.07
66742;BME280;53654;54.152;19.432;2024-03-23T01:06:19;100516.10;;;9.52;85.50
66742;BME280;53654;54.152;19.432;2024-03-23T01:08:47;100517.83;;;9.53;85.76
66742;BME280;53654;54.152;19.432;2024-03-23T01:11:15;100516.80;;;9.51;86.00
66742;BME280;53654;54.152;19.432;2024-03-23T01:13:43;100521.33;;;9.51;86.18
66742;BME280;53654;54.152;19.432;2024-03-23T01:16:11;100522.90;;;9.51;85.97
66742;BME280;53654;54.152;19.432;2024-03-23T01:18:39;100518.20;;;9.51;86.26
66742;BME280;53654;54.152;19.432;2024-03-23T01:21:07;100522.39;;;9.50;86.35
66742;BME280;53654;54.152;19.432;2024-03-23T01:23:35;100518.91;;;9.49;86.61
66742;BME280;53654;54.152;19.432;2024-03-23T01:26:03;100517.88;;;9.48;86.62
66742;BME280;53654;54.152;19.432;2024-03-23T01:28:31;100516.33;;;9.45;86.43
66742;BME280;53654;54.152;19.432;2024-03-23T01:30:59;100516.52;;;9.44;86.51
66742;BME280;53654;54.152;19.432;2024-03-23T01:33:27;100519.99;;;9.44;86.80
66742;BME280;53654;54.152;19.432;2024-03-23T01:35:55;100518.60;;;9.43;87.11
66742;BME280;53654;54.152;19.432;2024-03-23T01:38:23;100510.08;;;9.42;87.08
66742;BME280;53654;54.152;19.432;2024-03-23T01:40:56;100507.81;;;9.42;87.19
66742;BME280;53654;54.152;19.432;2024-03-23T01:43:25;100512.19;;;9.40;87.34
66742;BME280;53654;54.152;19.432;2024-03-23T01:45:53;100514.45;;;9.40;87.38
66742;BME280;53654;54.152;19.432;2024-03-23T01:48:21;100511.67;;;9.38;87.42
66742;BME280;53654;54.152;19.432;2024-03-23T01:50:49;100512.38;;;9.37;87.50
66742;BME280;53654;54.152;19.432;2024-03-23T01:53:18;100514.13;;;9.36;87.40
66742;BME280;53654;54.152;19.432;2024-03-23T01:55:50;100516.39;;;9.36;87.36
66742;BME280;53654;54.152;19.432;2024-03-23T01:58:18;100512.05;;;9.33;87.46
66742;BME280;53654;54.152;19.432;2024-03-23T02:00:46;100505.61;;;9.34;87.52
66742;BME280;53654;54.152;19.432;2024-03-23T02:03:25;100495.17;;;9.34;87.60
66742;BME280;53654;54.152;19.432;2024-03-23T02:05:54;100502.48;;;9.32;87.56
66742;BME280;53654;54.152;19.432;2024-03-23T02:08:24;100501.63;;;9.32;87.73
66742;BME280;53654;54.152;19.432;2024-03-23T02:10:52;100508.42;;;9.31;87.60
66742;BME280;53654;54.152;19.432;2024-03-23T02:13:20;100516.60;;;9.30;87.44
66742;BME280;53654;54.152;19.432;2024-03-23T02:15:48;100516.27;;;9.29;87.27
66742;BME280;53654;54.152;19.432;2024-03-23T02:18:17;100520.80;;;9.27;87.06
66742;BME280;53654;54.152;19.432;2024-03-23T02:20:45;100525.52;;;9.26;87.15
66742;BME280;53654;54.152;19.432;2024-03-23T02:23:14;100523.98;;;9.21;87.08
66742;BME280;53654;54.152;19.432;2024-03-23T02:25:42;100526.24;;;9.21;87.00
66742;BME280;53654;54.152;19.432;2024-03-23T02:28:10;100526.26;;;9.19;87.30
66742;BME280;53654;54.152;19.432;2024-03-23T02:30:38;100526.27;;;9.18;87.48
66742;BME280;53654;54.152;19.432;2024-03-23T02:33:06;100523.32;;;9.17;87.67
66742;BME280;53654;54.152;19.432;2024-03-23T02:35:34;100516.88;;;9.16;87.52
66742;BME280;53654;54.152;19.432;2024-03-23T02:38:02;100513.23;;;9.15;87.19
66742;BME280;53654;54.152;19.432;2024-03-23T02:40:30;100511.14;;;9.15;87.23
66742;BME280;53654;54.152;19.432;2024-03-23T02:42:58;100513.59;;;9.14;87.33
66742;BME280;53654;54.152;19.432;2024-03-23T02:45:26;100505.23;;;9.13;87.70
66742;BME280;53654;54.152;19.432;2024-03-23T02:47:54;100504.71;;;9.13;87.77
66742;BME280;53654;54.152;19.432;2024-03-23T02:50:23;100507.68;;;9.12;87.79
66742;BME280;53654;54.152;19.432;2024-03-23T02:52:51;100503.52;;;9.11;87.94
66742;BME280;53654;54.152;19.432;2024-03-23T02:55:19;100505.42;;;9.10;88.00
66742;BME280;53654;54.152;19.432;2024-03-23T02:57:47;100496.20;;;9.10;88.08
66742;BME280;53654;54.152;19.432;2024-03-23T03:00:15;100491.00;;;9.09;88.14
66742;BME280;53654;54.152;19.432;2024-03-23T03:02:43;100477.25;;;9.08;87.58
66742;BME280;53654;54.152;19.432;2024-03-23T03:05:11;100470.14;;;9.05;86.80
66742;BME280;53654;54.152;19.432;2024-03-23T03:07:40;100464.42;;;9.02;86.57
66742;BME280;53654;54.152;19.432;2024-03-23T03:10:09;100462.89;;;8.97;86.48
66742;BME280;53654;54.152;19.432;2024-03-23T03:12:38;100461.35;;;8.93;86.70
66742;BME280;53654;54.152;19.432;2024-03-23T03:15:08;100456.83;;;8.91;87.06
66742;BME280;53654;54.152;19.432;2024-03-23T03:17:37;100455.46;;;8.89;87.08
66742;BME280;53654;54.152;19.432;2024-03-23T03:20:06;100452.52;;;8.87;86.98
66742;BME280;53654;54.152;19.432;2024-03-23T03:22:34;100442.60;;;8.86;87.12
66742;BME280;53654;54.152;19.432;2024-03-23T03:25:02;100444.70;;;8.85;87.66
66742;BME280;53654;54.152;19.432;2024-03-23T03:27:30;100441.23;;;8.83;87.78
66742;BME280;53654;54.152;19.432;2024-03-23T03:29:59;100438.63;;;8.83;88.00
66742;BME280;53654;54.152;19.432;2024-03-23T03:32:29;100446.28;;;8.81;88.21
66742;BME280;53654;54.152;19.432;2024-03-23T03:34:57;100442.46;;;8.80;88.31
66742;BME280;53654;54.152;19.432;2024-03-23T03:37:25;100444.04;;;8.80;88.51
66742;BME280;53654;54.152;19.432;2024-03-23T03:39:53;100444.56;;;8.79;88.78
66742;BME280;53654;54.152;19.432;2024-03-23T03:42:21;100445.27;;;8.78;88.87
66742;BME280;53654;54.152;19.432;2024-03-23T03:44:49;100443.70;;;8.78;89.00
66742;BME280;53654;54.152;19.432;2024-03-23T03:47:17;100444.41;;;8.77;89.09
66742;BME280;53654;54.152;19.432;2024-03-23T03:49:45;100441.63;;;8.75;88.95
66742;BME280;53654;54.152;19.432;2024-03-23T03:52:13;100440.23;;;8.74;88.79
66742;BME280;53654;54.152;19.432;2024-03-23T03:54:42;100448.77;;;8.73;88.91
66742;BME280;53654;54.152;19.432;2024-03-23T03:57:09;100446.50;;;8.73;89.02
66742;BME280;53654;54.152;19.432;2024-03-23T03:59:37;100444.77;;;8.72;89.20
66742;BME280;53654;54.152;19.432;2024-03-23T04:02:05;100440.08;;;8.72;89.33
66742;BME280;53654;54.152;19.432;2024-03-23T04:04:33;100444.27;;;8.70;89.37
66742;BME280;53654;54.152;19.432;2024-03-23T04:07:02;100445.66;;;8.70;89.27
66742;BME280;53654;54.152;19.432;2024-03-23T04:09:30;100442.01;;;8.69;89.12
66742;BME280;53654;54.152;19.432;2024-03-23T04:11:58;100439.91;;;8.69;89.11
66742;BME280;53654;54.152;19.432;2024-03-23T04:14:26;100442.02;;;8.68;89.17
66742;BME280;53654;54.152;19.432;2024-03-23T04:16:54;100436.45;;;8.69;89.25
66742;BME280;53654;54.152;19.432;2024-03-23T04:19:23;100428.80;;;8.68;89.20
66742;BME280;53654;54.152;19.432;2024-03-23T04:21:51;100429.16;;;8.66;89.04
66742;BME280;53654;54.152;19.432;2024-03-23T04:24:19;100427.42;;;8.64;89.12
66742;BME280;53654;54.152;19.432;2024-03-23T04:26:48;100423.27;;;8.62;89.18
66742;BME280;53654;54.152;19.432;2024-03-23T04:29:16;100421.35;;;8.62;89.26
66742;BME280;53654;54.152;19.432;2024-03-23T04:31:44;100415.27;;;8.62;89.11
66742;BME280;53654;54.152;19.432;2024-03-23T04:34:13;100413.73;;;8.59;88.83
66742;BME280;53654;54.152;19.432;2024-03-23T04:36:41;100415.65;;;8.56;88.85
66742;BME280;53654;54.152;19.432;2024-03-23T04:39:08;100418.61;;;8.55;88.95
66742;BME280;53654;54.152;19.432;2024-03-23T04:41:37;100417.92;;;8.54;89.11
66742;BME280;53654;54.152;19.432;2024-03-23T04:44:04;100415.14;;;8.54;89.24
66742;BME280;53654;54.152;19.432;2024-03-23T04:46:34;100412.71;;;8.54;89.37
66742;BME280;53654;54.152;19.432;2024-03-23T04:49:03;100413.92;;;8.54;89.62
66742;BME280;53654;54.152;19.432;2024-03-23T04:51:36;100412.36;;;8.54;89.82
66742;BME280;53654;54.152;19.432;2024-03-23T04:54:07;100409.76;;;8.53;90.03
66742;BME280;53654;54.152;19.432;2024-03-23T04:56:35;100406.63;;;8.53;90.26
66742;BME280;53654;54.152;19.432;2024-03-23T04:59:04;100407.67;;;8.53;90.18
66742;BME280;53654;54.152;19.432;2024-03-23T05:01:32;100399.84;;;8.54;90.12
66742;BME280;53654;54.152;19.432;2024-03-23T05:04:03;100403.15;;;8.54;89.80
66742;BME280;53654;54.152;19.432;2024-03-23T05:06:31;100401.58;;;8.54;89.52
66742;BME280;53654;54.152;19.432;2024-03-23T05:08:59;100394.63;;;8.55;89.52
66742;BME280;53654;54.152;19.432;2024-03-23T05:11:27;100392.54;;;8.56;89.48
66742;BME280;53654;54.152;19.432;2024-03-23T05:13:55;100387.30;;;8.56;89.80
66742;BME280;53654;54.152;19.432;2024-03-23T05:16:23;100392.00;;;8.57;89.63
66742;BME280;53654;54.152;19.432;2024-03-23T05:18:51;100394.09;;;8.57;89.27
66742;BME280;53654;54.152;19.432;2024-03-23T05:21:19;100390.77;;;8.57;89.19
66742;BME280;53654;54.152;19.432;2024-03-23T05:23:47;100390.42;;;8.58;89.26
66742;BME280;53654;54.152;19.432;2024-03-23T05:26:15;100389.20;;;8.59;89.58
66742;BME280;53654;54.152;19.432;2024-03-23T05:28:43;100396.33;;;8.59;89.53
66742;BME280;53654;54.152;19.432;2024-03-23T05:31:11;100389.72;;;8.61;89.40
66742;BME280;53654;54.152;19.432;2024-03-23T05:33:39;100388.31;;;8.62;89.46
66742;BME280;53654;54.152;19.432;2024-03-23T05:36:07;100385.36;;;8.63;89.35
66742;BME280;53654;54.152;19.432;2024-03-23T05:38:39;100386.38;;;8.65;89.33
66742;BME280;53654;54.152;19.432;2024-03-23T05:41:07;100388.98;;;8.67;89.41
66742;BME280;53654;54.152;19.432;2024-03-23T05:43:35;100389.48;;;8.70;89.63
66742;BME280;53654;54.152;19.432;2024-03-23T05:46:04;100385.82;;;8.72;89.53
66742;BME280;53654;54.152;19.432;2024-03-23T05:48:35;100382.15;;;8.75;89.30
66742;BME280;53654;54.152;19.432;2024-03-23T05:51:03;100377.63;;;8.76;88.71
66742;BME280;53654;54.152;19.432;2024-03-23T05:53:31;100372.92;;;8.76;88.22
66742;BME280;53654;54.152;19.432;2024-03-23T05:56:02;100374.30;;;8.77;88.13
66742;BME280;53654;54.152;19.432;2024-03-23T05:58:34;100371.35;;;8.78;88.29
66742;BME280;53654;54.152;19.432;2024-03-23T06:01:02;100364.55;;;8.79;88.19
66742;BME280;53654;54.152;19.432;2024-03-23T06:03:30;100363.67;;;8.80;88.34
66742;BME280;53654;54.152;19.432;2024-03-23T06:05:58;100364.54;;;8.81;88.17
66742;BME280;53654;54.152;19.432;2024-03-23T06:08:26;100366.27;;;8.83;88.28
66742;BME280;53654;54.152;19.432;2024-03-23T06:10:54;100367.83;;;8.84;88.12
66742;BME280;53654;54.152;19.432;2024-03-23T06:13:21;100363.83;;;8.83;87.91
66742;BME280;53654;54.152;19.432;2024-03-23T06:15:58;100362.80;;;8.81;88.02
66742;BME280;53654;54.152;19.432;2024-03-23T06:18:26;100369.20;;;8.85;88.23
66742;BME280;53654;54.152;19.432;2024-03-23T06:20:54;100365.35;;;8.87;88.37
66742;BME280;53654;54.152;19.432;2024-03-23T06:23:22;100359.96;;;8.89;88.07
66742;BME280;53654;54.152;19.432;2024-03-23T06:25:50;100364.64;;;8.90;87.91
66742;BME280;53654;54.152;19.432;2024-03-23T06:28:18;100363.77;;;8.90;87.76
66742;BME280;53654;54.152;19.432;2024-03-23T06:30:46;100360.48;;;8.90;87.71
66742;BME280;53654;54.152;19.432;2024-03-23T06:33:14;100359.60;;;8.90;87.79
66742;BME280;53654;54.152;19.432;2024-03-23T06:35:42;100359.42;;;8.91;87.76
66742;BME280;53654;54.152;19.432;2024-03-23T06:38:10;100358.73;;;8.90;87.78
66742;BME280;53654;54.152;19.432;2024-03-23T06:40:38;100356.13;;;8.89;87.96
66742;BME280;53654;54.152;19.432;2024-03-23T06:43:06;100353.00;;;8.88;88.06
66742;BME280;53654;54.152;19.432;2024-03-23T06:45:33;100354.05;;;8.87;88.38
66742;BME280;53654;54.152;19.432;2024-03-23T06:48:01;100355.10;;;8.87;88.57
66742;BME280;53654;54.152;19.432;2024-03-23T06:50:31;100348.99;;;8.89;88.78
66742;BME280;53654;54.152;19.432;2024-03-23T06:52:59;100348.46;;;8.90;88.98
66742;BME280;53654;54.152;19.432;2024-03-23T06:55:27;100353.84;;;8.92;89.26
66742;BME280;53654;54.152;19.432;2024-03-23T06:57:55;100352.62;;;8.93;89.39
66742;BME280;53654;54.152;19.432;2024-03-23T07:00:23;100354.16;;;8.94;89.41
66742;BME280;53654;54.152;19.432;2024-03-23T07:02:52;100351.20;;;8.96;89.66
66742;BME280;53654;54.152;19.432;2024-03-23T07:05:21;100355.86;;;9.00;90.03
66742;BME280;53654;54.152;19.432;2024-03-23T07:07:48;100357.75;;;9.03;89.98
66742;BME280;53654;54.152;19.432;2024-03-23T07:10:16;100355.48;;;9.04;90.20
66742;BME280;53654;54.152;19.432;2024-03-23T07:12:45;100354.77;;;9.06;90.27
66742;BME280;53654;54.152;19.432;2024-03-23T07:15:13;100352.67;;;9.08;90.06
66742;BME280;53654;54.152;19.432;2024-03-23T07:17:41;100351.09;;;9.10;90.00
66742;BME280;53654;54.152;19.432;2024-03-23T07:20:09;100353.17;;;9.09;89.90
66742;BME280;53654;54.152;19.432;2024-03-23T07:22:38;100351.61;;;9.11;90.17
66742;BME280;53654;54.152;19.432;2024-03-23T07:25:06;100354.20;;;9.11;90.06
66742;BME280;53654;54.152;19.432;2024-03-23T07:27:34;100351.23;;;9.13;90.35
66742;BME280;53654;54.152;19.432;2024-03-23T07:30:02;100353.30;;;9.15;90.46
66742;BME280;53654;54.152;19.432;2024-03-23T07:32:30;100350.15;;;9.16;90.63
66742;BME280;53654;54.152;19.432;2024-03-23T07:34:58;100353.27;;;9.19;90.82
66742;BME280;53654;54.152;19.432;2024-03-23T07:37:26;100347.67;;;9.21;90.90
66742;BME280;53654;54.152;19.432;2024-03-23T07:39:54;100342.80;;;9.21;90.71
66742;BME280;53654;54.152;19.432;2024-03-23T07:42:22;100343.48;;;9.22;90.89
66742;BME280;53654;54.152;19.432;2024-03-23T07:44:50;100341.22;;;9.23;90.75
66742;BME280;53654;54.152;19.432;2024-03-23T07:47:18;100340.68;;;9.24;90.56
66742;BME280;53654;54.152;19.432;2024-03-23T07:49:47;100334.59;;;9.24;90.63
66742;BME280;53654;54.152;19.432;2024-03-23T07:52:15;100329.73;;;9.23;89.85
66742;BME280;53654;54.152;19.432;2024-03-23T07:54:43;100325.36;;;9.24;89.37
66742;BME280;53654;54.152;19.432;2024-03-23T07:57:11;100326.90;;;9.27;88.70
66742;BME280;53654;54.152;19.432;2024-03-23T07:59:39;100328.45;;;9.29;87.94
66742;BME280;53654;54.152;19.432;2024-03-23T08:02:06;100325.30;;;9.31;87.60
66742;BME280;53654;54.152;19.432;2024-03-23T08:04:34;100327.39;;;9.31;86.67
66742;BME280;53654;54.152;19.432;2024-03-23T08:07:02;100332.27;;;9.31;86.65
66742;BME280;53654;54.152;19.432;2024-03-23T08:09:30;100333.63;;;9.33;87.09
66742;BME280;53654;54.152;19.432;2024-03-23T08:11:58;100329.12;;;9.32;87.22
66742;BME280;53654;54.152;19.432;2024-03-23T08:14:26;100324.56;;;9.34;87.38
66742;BME280;53654;54.152;19.432;2024-03-23T08:16:54;100317.75;;;9.37;87.12
66742;BME280;53654;54.152;19.432;2024-03-23T08:19:22;100318.07;;;9.40;86.82
66742;BME280;53654;54.152;19.432;2024-03-23T08:21:50;100318.73;;;9.43;86.74
66742;BME280;53654;54.152;19.432;2024-03-23T08:24:19;100314.87;;;9.46;85.87
66742;BME280;53654;54.152;19.432;2024-03-23T08:26:47;100312.77;;;9.48;84.85
66742;BME280;53654;54.152;19.432;2024-03-23T08:29:15;100311.70;;;9.51;84.24
66742;BME280;53654;54.152;19.432;2024-03-23T08:31:43;100310.11;;;9.52;83.39
66742;BME280;53654;54.152;19.432;2024-03-23T08:34:11;100302.60;;;9.53;82.47
66742;BME280;53654;54.152;19.432;2024-03-23T08:36:39;100295.98;;;9.55;82.47
66742;BME280;53654;54.152;19.432;2024-03-23T08:39:07;100296.98;;;9.57;82.46
66742;BME280;53654;54.152;19.432;2024-03-23T08:41:47;100295.23;;;9.58;81.08
66742;BME280;53654;54.152;19.432;2024-03-23T08:44:15;100293.32;;;9.58;80.33
66742;BME280;53654;54.152;19.432;2024-03-23T08:46:43;100293.84;;;9.59;80.31
66742;BME280;53654;54.152;19.432;2024-03-23T08:49:11;100290.69;;;9.60;79.96
66742;BME280;53654;54.152;19.432;2024-03-23T08:51:40;100290.50;;;9.60;80.13
66742;BME280;53654;54.152;19.432;2024-03-23T08:54:08;100287.90;;;9.60;80.38
66742;BME280;53654;54.152;19.432;2024-03-23T08:56:36;100290.51;;;9.60;80.51
66742;BME280;53654;54.152;19.432;2024-03-23T08:59:04;100290.70;;;9.58;80.52
66742;BME280;53654;54.152;19.432;2024-03-23T09:01:32;100284.83;;;9.55;80.55
66742;BME280;53654;54.152;19.432;2024-03-23T09:04:00;100286.73;;;9.54;80.44
66742;BME280;53654;54.152;19.432;2024-03-23T09:06:28;100285.71;;;9.53;80.54
66742;BME280;53654;54.152;19.432;2024-03-23T09:08:56;100286.25;;;9.52;80.15
66742;BME280;53654;54.152;19.432;2024-03-23T09:11:24;100282.09;;;9.50;79.46
66742;BME280;53654;54.152;19.432;2024-03-23T09:13:52;100281.95;;;9.48;79.27
66742;BME280;53654;54.152;19.432;2024-03-23T09:16:20;100283.15;;;9.49;78.86
66742;BME280;53654;54.152;19.432;2024-03-23T09:18:48;100284.21;;;9.48;78.41
66742;BME280;53654;54.152;19.432;2024-03-23T09:21:16;100287.73;;;9.45;78.27
66742;BME280;53654;54.152;19.432;2024-03-23T09:23:44;100281.30;;;9.43;78.40
66742;BME280;53654;54.152;19.432;2024-03-23T09:26:13;100280.80;;;9.41;78.89
66742;BME280;53654;54.152;19.432;2024-03-23T09:28:41;100272.81;;;9.40;79.82
66742;BME280;53654;54.152;19.432;2024-03-23T09:31:09;100270.20;;;9.39;80.03
66742;BME280;53654;54.152;19.432;2024-03-23T09:33:42;100271.27;;;9.36;80.14
66742;BME280;53654;54.152;19.432;2024-03-23T09:36:11;100275.10;;;9.37;80.24
66742;BME280;53654;54.152;19.432;2024-03-23T09:38:38;100271.45;;;9.36;80.76
66742;BME280;53654;54.152;19.432;2024-03-23T09:41:07;100267.10;;;9.36;81.11
66742;BME280;53654;54.152;19.432;2024-03-23T09:43:36;100264.64;;;9.38;81.51
66742;BME280;53654;54.152;19.432;2024-03-23T09:46:04;100261.69;;;9.38;81.58
66742;BME280;53654;54.152;19.432;2024-03-23T09:48:33;100255.10;;;9.35;81.82
66742;BME280;53654;54.152;19.432;2024-03-23T09:51:02;100254.08;;;9.34;81.99
66742;BME280;53654;54.152;19.432;2024-03-23T09:53:30;100254.78;;;9.33;82.43
66742;BME280;53654;54.152;19.432;2024-03-23T09:56:00;100259.14;;;9.32;82.58
66742;BME280;53654;54.152;19.432;2024-03-23T09:58:28;100251.16;;;9.30;82.56
66742;BME280;53654;54.152;19.432;2024-03-23T10:00:56;100243.69;;;9.29;82.15
66742;BME280;53654;54.152;19.432;2024-03-23T10:03:25;100238.46;;;9.29;81.20
66742;BME280;53654;54.152;19.432;2024-03-23T10:06:02;100235.14;;;9.30;81.52
66742;BME280;53654;54.152;19.432;2024-03-23T10:08:30;100229.23;;;9.30;81.69
66742;BME280;53654;54.152;19.432;2024-03-23T10:11:15;100230.75;;;9.33;82.02
66742;BME280;53654;54.152;19.432;2024-03-23T10:13:44;100226.41;;;9.33;81.71
66742;BME280;53654;54.152;19.432;2024-03-23T10:16:21;100222.59;;;9.31;81.44
66742;BME280;53654;54.152;19.432;2024-03-23T10:18:50;100222.08;;;9.31;81.67
66742;BME280;53654;54.152;19.432;2024-03-23T10:21:18;100219.11;;;9.32;82.00
66742;BME280;53654;54.152;19.432;2024-03-23T10:23:46;100209.84;;;9.35;82.24
66742;BME280;53654;54.152;19.432;2024-03-23T10:26:21;100210.50;;;9.40;82.10
66742;BME280;53654;54.152;19.432;2024-03-23T10:31:21;100211.27;;;9.32;81.59
66742;BME280;53654;54.152;19.432;2024-03-23T10:33:49;100213.57;;;9.29;81.87
66742;BME280;53654;54.152;19.432;2024-03-23T10:36:17;100215.17;;;9.26;81.44
66742;BME280;53654;54.152;19.432;2024-03-23T10:38:50;100214.37;;;9.21;79.88
66742;BME280;53654;54.152;19.432;2024-03-23T10:41:18;100213.92;;;9.14;78.93
66742;BME280;53654;54.152;19.432;2024-03-23T10:43:48;100208.08;;;9.07;78.98
66742;BME280;53654;54.152;19.432;2024-03-23T10:46:16;100208.50;;;9.00;78.49
66742;BME280;53654;54.152;19.432;2024-03-23T10:48:44;100212.07;;;8.92;77.98
66742;BME280;53654;54.152;19.432;2024-03-23T10:51:14;100209.86;;;8.86;77.89
66742;BME280;53654;54.152;19.432;2024-03-23T10:53:42;100215.15;;;8.80;78.15
66742;BME280;53654;54.152;19.432;2024-03-23T10:56:11;100216.24;;;8.75;78.34
66742;BME280;53654;54.152;19.432;2024-03-23T10:58:47;100215.93;;;8.70;78.67
66742;BME280;53654;54.152;19.432;2024-03-23T11:01:17;100213.52;;;8.68;79.55
66742;BME280;53654;54.152;19.432;2024-03-23T11:03:46;100213.00;;;8.68;80.18
66742;BME280;53654;54.152;19.432;2024-03-23T11:06:40;100207.27;;;8.67;80.03
66742;BME280;53654;54.152;19.432;2024-03-23T11:12:29;100194.13;;;8.58;80.24
66742;BME280;53654;54.152;19.432;2024-03-23T11:15:11;100191.90;;;8.56;80.09
66742;BME280;53654;54.152;19.432;2024-03-23T11:17:39;100192.77;;;8.56;80.12
66742;BME280;53654;54.152;19.432;2024-03-23T11:20:08;100183.02;;;8.57;80.11
66742;BME280;53654;54.152;19.432;2024-03-23T11:27:45;100164.95;;;8.55;80.51
66742;BME280;53654;54.152;19.432;2024-03-23T11:32:46;100156.83;;;8.51;80.32
66742;BME280;53654;54.152;19.432;2024-03-23T11:35:31;100156.33;;;8.48;80.83
66742;BME280;53654;54.152;19.432;2024-03-23T11:40:35;100149.63;;;8.40;80.38
66742;BME280;53654;54.152;19.432;2024-03-23T11:43:05;100140.40;;;8.42;80.30
66742;BME280;53654;54.152;19.432;2024-03-23T11:45:35;100128.58;;;8.42;80.09
66742;BME280;53654;54.152;19.432;2024-03-23T11:48:05;100131.52;;;8.44;80.09
66742;BME280;53654;54.152;19.432;2024-03-23T11:50:36;100132.91;;;8.43;79.01
66742;BME280;53654;54.152;19.432;2024-03-23T11:53:23;100141.29;;;8.40;79.38
66742;BME280;53654;54.152;19.432;2024-03-23T11:55:55;100151.39;;;8.38;79.22
66742;BME280;53654;54.152;19.432;2024-03-23T11:58:25;100146.33;;;8.40;79.18
66742;BME280;53654;54.152;19.432;2024-03-23T12:01:09;100144.38;;;8.44;79.24
66742;BME280;53654;54.152;19.432;2024-03-23T12:03:37;100141.40;;;8.47;79.17
66742;BME280;53654;54.152;19.432;2024-03-23T12:06:05;100138.58;;;8.50;79.22
66742;BME280;53654;54.152;19.432;2024-03-23T12:08:35;100139.45;;;8.51;79.11
66742;BME280;53654;54.152;19.432;2024-03-23T12:11:08;100136.52;;;8.48;78.61
66742;BME280;53654;54.152;19.432;2024-03-23T12:13:38;100138.14;;;8.41;78.61
66742;BME280;53654;54.152;19.432;2024-03-23T12:18:38;100135.56;;;8.38;78.26
66742;BME280;53654;54.152;19.432;2024-03-23T12:21:08;100119.39;;;8.40;78.00
66742;BME280;53654;54.152;19.432;2024-03-23T12:23:39;100112.23;;;8.43;78.11
66742;BME280;53654;54.152;19.432;2024-03-23T12:26:07;100110.46;;;8.46;78.40
66742;BME280;53654;54.152;19.432;2024-03-23T12:28:35;100116.52;;;8.48;78.75
66742;BME280;53654;54.152;19.432;2024-03-23T12:31:03;100136.16;;;8.48;78.96
66742;BME280;53654;54.152;19.432;2024-03-23T12:33:32;100142.23;;;8.49;79.25
66742;BME280;53654;54.152;19.432;2024-03-23T12:35:59;100131.25;;;8.53;79.89
66742;BME280;53654;54.152;19.432;2024-03-23T12:38:27;100108.10;;;8.55;80.20
66742;BME280;53654;54.152;19.432;2024-03-23T12:40:55;100110.00;;;8.58;80.17
66742;BME280;53654;54.152;19.432;2024-03-23T12:43:23;100111.91;;;8.56;79.99
66742;BME280;53654;54.152;19.432;2024-03-23T12:45:51;100099.20;;;8.58;80.05
66742;BME280;53654;54.152;19.432;2024-03-23T12:48:19;100099.01;;;8.61;80.07
66742;BME280;53654;54.152;19.432;2024-03-23T12:50:47;100103.18;;;8.61;79.73
66742;BME280;53654;54.152;19.432;2024-03-23T12:53:15;100104.58;;;8.61;80.25
66742;BME280;53654;54.152;19.432;2024-03-23T12:55:43;100097.98;;;8.60;79.18
66742;BME280;53654;54.152;19.432;2024-03-23T12:58:11;100091.20;;;8.59;78.62
66742;BME280;53654;54.152;19.432;2024-03-23T13:00:38;100075.22;;;8.58;78.29
66742;BME280;53654;54.152;19.432;2024-03-23T13:03:08;100065.68;;;8.56;76.74
66742;BME280;53654;54.152;19.432;2024-03-23T13:05:41;100053.50;;;8.57;75.77
66742;BME280;53654;54.152;19.432;2024-03-23T13:08:09;100053.65;;;8.59;75.42
66742;BME280;53654;54.152;19.432;2024-03-23T13:10:37;100049.63;;;8.61;75.40
66742;BME280;53654;54.152;19.432;2024-03-23T13:13:05;100049.63;;;8.61;74.73
66742;BME280;53654;54.152;19.432;2024-03-23T13:15:35;100052.06;;;8.61;74.63
66742;BME280;53654;54.152;19.432;2024-03-23T13:18:03;100055.35;;;8.62;74.51
66742;BME280;53654;54.152;19.432;2024-03-23T13:20:31;100051.52;;;8.63;74.29
66742;BME280;53654;54.152;19.432;2024-03-23T13:22:59;100044.23;;;8.63;75.09
66742;BME280;53654;54.152;19.432;2024-03-23T13:25:27;100044.09;;;8.59;75.41
66742;BME280;53654;54.152;19.432;2024-03-23T13:27:55;100041.14;;;8.58;75.39
66742;BME280;53654;54.152;19.432;2024-03-23T13:30:23;100034.53;;;8.59;75.34
66742;BME280;53654;54.152;19.432;2024-03-23T13:32:51;100033.67;;;8.57;74.49
66742;BME280;53654;54.152;19.432;2024-03-23T13:35:19;100039.09;;;8.55;74.47
66742;BME280;53654;54.152;19.432;2024-03-23T13:37:47;100042.74;;;8.55;74.40
66742;BME280;53654;54.152;19.432;2024-03-23T13:40:15;100038.05;;;8.55;74.31
66742;BME280;53654;54.152;19.432;2024-03-23T13:42:43;100034.75;;;8.54;74.49
66742;BME280;53654;54.152;19.432;2024-03-23T13:45:11;100029.92;;;8.51;74.77
66742;BME280;53654;54.152;19.432;2024-03-23T13:47:46;100026.32;;;8.47;74.80
66742;BME280;53654;54.152;19.432;2024-03-23T13:50:14;100021.35;;;8.42;75.49
66742;BME280;53654;54.152;19.432;2024-03-23T13:52:42;100016.86;;;8.38;75.73
66742;BME280;53654;54.152;19.432;2024-03-23T13:55:09;100021.26;;;8.32;75.76
66742;BME280;53654;54.152;19.432;2024-03-23T13:57:40;100017.81;;;8.28;76.50
66742;BME280;53654;54.152;19.432;2024-03-23T14:00:09;100017.50;;;8.25;76.24
66742;BME280;53654;54.152;19.432;2024-03-23T14:02:39;100007.13;;;8.19;76.18
66742;BME280;53654;54.152;19.432;2024-03-23T14:05:08;99999.71;;;8.15;75.78
66742;BME280;53654;54.152;19.432;2024-03-23T14:07:36;99999.89;;;8.14;76.27
66742;BME280;53654;54.152;19.432;2024-03-23T14:10:04;99998.02;;;8.09;76.12